サンクトペテルブルク の空港の天気 - METARとTAF

プルコヴォ空港(サンクトペテルブルグ) ( ULLI / LED ) - ロシア サンクトペテルブルク
飛行場実況気象(Metar)
観測時間05/29 01:00 MSK (05/28 22:00 UTC)
風向・風速西南西 2m/s
視程9000m
天気現象地霧
なし
気温7℃
湿度93%
気圧1001hPa
METARULLI 282200Z 25002MPS 220V280 9000 MIFG NSC 07/06 Q1001 R28L/290050 NOSIG
過去の天気等 Google飛行場航空写真 Wunderground天気予報

過去48時間のMETAR

飛行場予報(TAF)
発表時間: 5/28 22:56 MSK (5/28 19:56 UTC)
予報対象時間: 29日0時 MSK ~ 30日0時 MSK
風向・風速南西 3m/s
視程4000m
天気現象もや
全天の4割程度の雲 雲底高度 300m
全天の8割程度の雲 雲底高度 490m
29日0時 MSK ~ 29日7時 MSK に一時的に
視程300m
天気現象
全天を覆う雲 鉛直視程 60m
29日9時 MSK から
風向・風速西 6m/s
視程6000m
全天の8割程度の雲 雲底高度 490m
29日13時 MSK ~ 29日21時 MSK に一時的に
風向・風速北西 7m/s 瞬間風速 12m/s
天気現象弱い雷雨
全天の8割程度の積乱雲 雲底高度 490m
TAF ULLI 281956Z 2821/2921 23003MPS 4000 BR SCT010 BKN016
TEMPO 2821/2904 0300 FG VV002
FM290600 27006MPS 6000 BKN016
TEMPO 2910/2918 32007G12MPS -TSRA BKN016CB